Time;durP1;ratioP1;P1;durP2;ratioP2;P2;SDS_P1;SDS_P2;PMS_P1;PMS_P2;Temp;Humidity;BMP_temperature;BMP_pressure;BME280_temperature;BME280_humidity;BME280_pressure;Samples;Min_cycle;Max_cycle;Signal;HPM_P1;HPM_P2
2022/03/28 00:00:26;;;;;;;1.30;0.80;;;;;;;-3.46;34.26;99173.03;4797271;30;20031;-86
2022/03/28 00:02:52;;;;;;;10.60;7.00;;;;;;;-3.95;34.63;99127.78;5025423;24;20064;-84
2022/03/28 00:05:18;;;;;;;2.30;1.58;;;;;;;-4.05;34.48;99125.66;4774988;30;20142;-84
2022/03/28 00:07:45;;;;;;;;;;;;;;;-3.78;34.78;99179.22;4756960;30;20173;-84
2022/03/28 00:10:15;;;;;;;3.17;1.35;;;;;;;-3.71;35.11;99184.66;4777629;30;19905;-85
2022/03/28 00:12:42;;;;;;;2.13;1.05;;;;;;;-4.08;35.12;99131.44;4770801;30;20078;-85
2022/03/28 00:15:13;;;;;;;1.08;0.80;;;;;;;-3.64;35.01;99161.28;4782689;30;20068;-83
2022/03/28 00:17:43;;;;;;;1.88;0.93;;;;;;;-3.95;34.30;99122.72;4760091;30;20043;-84
2022/03/28 00:20:11;;;;;;;2.15;1.00;;;;;;;-3.88;34.92;99150.09;4773991;24;20047;-86
2022/03/28 00:22:38;;;;;;;1.15;0.90;;;;;;;-3.93;35.11;99149.00;4794833;30;20039;-84
2022/03/28 00:25:08;;;;;;;1.20;0.90;;;;;;;-3.59;35.46;99186.84;4795211;30;20059;-84
2022/03/28 00:27:36;;;;;;;1.55;0.80;;;;;;;-3.82;35.37;99150.34;4748372;30;20048;-86
2022/03/28 00:30:03;;;;;;;1.30;0.82;;;;;;;-3.81;35.15;99154.59;4763345;30;20036;-84
2022/03/28 00:32:31;;;;;;;1.20;0.75;;;;;;;-3.61;35.38;99141.16;4767009;30;20107;-86
2022/03/28 00:35:00;;;;;;;0.93;0.70;;;;;;;-3.25;35.13;99191.72;4758239;30;20044;-85
2022/03/28 00:37:27;;;;;;;1.70;0.90;;;;;;;-3.72;34.92;99121.19;4845638;24;20084;-80
2022/03/28 00:39:55;;;;;;;1.98;0.90;;;;;;;-3.66;35.12;99136.69;4795904;29;20095;-83
2022/03/28 00:42:29;;;;;;;1.48;0.80;;;;;;;-2.81;34.25;99185.97;4798130;29;20024;-84
2022/03/28 00:45:37;;;;;;;2.63;1.00;;;;;;;-3.16;34.22;99187.06;5073784;24;20035;-80
2022/03/28 00:48:09;;;;;;;3.03;1.00;;;;;;;-3.62;34.90;99129.28;5694335;24;20942;31
2022/03/28 00:50:35;;;;;;;1.27;0.80;;;;;;;-3.42;34.78;99150.41;5016931;24;20043;-83
2022/03/28 00:53:02;;;;;;;1.67;0.80;;;;;;;-3.37;34.64;99121.06;4762804;29;20019;-83
2022/03/28 00:55:28;;;;;;;1.67;0.93;;;;;;;-3.36;34.61;99124.44;4762933;30;20028;-84
2022/03/28 00:57:54;;;;;;;2.72;0.88;;;;;;;-3.31;34.51;99135.66;4762506;30;20099;-82
2022/03/28 01:00:20;;;;;;;3.33;0.90;;;;;;;-3.42;34.95;99145.34;4771631;30;20028;-84
2022/03/28 01:02:46;;;;;;;1.15;0.65;;;;;;;-3.49;34.63;99137.41;4776856;30;20042;-87
2022/03/28 01:05:12;;;;;;;1.40;0.90;;;;;;;-3.46;34.97;99147.69;4755410;30;20051;-85
2022/03/28 01:07:40;;;;;;;2.90;1.10;;;;;;;-3.67;35.12;99120.59;4741932;30;20044;-83
2022/03/28 01:10:07;;;;;;;4.10;1.13;;;;;;;-3.67;35.71;99145.06;4778317;29;20071;-84
2022/03/28 01:12:33;;;;;;;3.42;1.10;;;;;;;-3.56;35.39;99130.34;4763270;30;20036;-85
2022/03/28 01:15:01;;;;;;;1.65;0.80;;;;;;;-3.53;35.45;99135.53;4777355;30;20077;-85
2022/03/28 01:20:14;;;;;;;1.15;0.80;;;;;;;-3.40;34.96;99135.25;4749376;30;20079;-84
2022/03/28 01:22:41;;;;;;;1.55;0.90;;;;;;;-3.54;34.87;99108.44;4763149;29;20031;-84
2022/03/28 01:25:11;;;;;;;1.70;0.90;;;;;;;-3.18;35.41;99167.47;4748632;30;20059;-84
2022/03/28 01:27:39;;;;;;;3.25;1.00;;;;;;;-3.49;34.73;99090.09;4744441;30;20148;-84
2022/03/28 01:30:07;;;;;;;2.00;0.90;;;;;;;-3.42;35.17;99114.91;4754072;30;20035;-86
2022/03/28 01:32:34;;;;;;;1.63;0.90;;;;;;;-3.14;35.15;99155.00;4759678;30;20050;-84
2022/03/28 01:35:03;;;;;;;1.10;0.80;;;;;;;-3.14;35.29;99149.91;4745413;30;20052;-83
2022/03/28 01:37:31;;;;;;;1.13;0.90;;;;;;;-3.41;35.00;99087.88;4750727;30;20024;-84
2022/03/28 01:40:04;;;;;;;1.40;0.90;;;;;;;-3.71;35.36;99083.28;4748598;30;20087;-85
2022/03/28 01:42:31;;;;;;;2.42;1.38;;;;;;;-3.80;35.61;99079.44;4759729;30;20031;-83
2022/03/28 01:44:59;;;;;;;1.65;0.90;;;;;;;-3.82;36.08;99092.06;4769098;30;20499;-84
2022/03/28 01:47:28;;;;;;;1.95;1.08;;;;;;;-3.75;35.94;99090.69;4783646;29;20037;-84
2022/03/28 01:49:56;;;;;;;1.33;0.82;;;;;;;-4.11;37.16;99093.31;4753028;30;20078;-83
2022/03/28 01:52:47;;;;;;;2.92;1.10;;;;;;;-4.17;38.06;99142.03;4747240;30;20040;-83
2022/03/28 01:55:28;;;;;;;3.55;1.55;;;;;;;-4.75;38.93;99082.78;4749756;30;20052;-83
2022/03/28 01:57:55;;;;;;;;;;;;;;;-4.27;38.35;99137.31;4736619;30;20039;-84
2022/03/28 02:00:28;;;;;;;4.07;1.20;;;;;;;-4.40;38.83;99135.91;4765988;30;19910;-85
2022/03/28 02:02:56;;;;;;;1.92;1.10;;;;;;;-4.78;39.16;99073.38;4843414;24;20031;-78
2022/03/28 02:06:08;;;;;;;2.30;1.05;;;;;;;-4.39;39.42;99125.00;4946660;24;20965;31
2022/03/28 02:08:35;;;;;;;2.03;0.90;;;;;;;-4.43;38.91;99112.13;4795396;30;20051;-83
2022/03/28 02:13:50;;;;;;;2.25;1.10;;;;;;;-4.60;38.31;99079.28;4990086;24;20296;-84
2022/03/28 02:16:16;;;;;;;2.30;1.27;;;;;;;-4.64;38.71;99067.28;4774110;30;20032;-84
2022/03/28 02:18:42;;;;;;;1.33;0.90;;;;;;;-4.56;38.36;99079.44;4779208;30;20039;-83
2022/03/28 02:21:09;;;;;;;4.43;1.10;;;;;;;-4.50;38.34;99095.75;4794014;30;20032;-82
2022/03/28 02:23:35;;;;;;;1.98;0.93;;;;;;;-4.86;38.89;99064.56;4750303;30;20045;-83
2022/03/28 02:26:02;;;;;;;2.05;0.90;;;;;;;-4.66;38.46;99076.50;4749758;30;20054;-83
2022/03/28 02:28:30;;;;;;;2.65;0.98;;;;;;;-5.00;39.32;99041.13;4766435;30;20063;-83
2022/03/28 02:31:01;;;;;;;3.65;1.00;;;;;;;-5.08;39.37;99044.13;4767523;30;20040;-83
2022/03/28 02:33:27;;;;;;;1.73;1.00;;;;;;;-5.12;39.02;99053.22;4751680;30;20035;-82
2022/03/28 02:35:53;;;;;;;1.33;1.05;;;;;;;-5.02;38.70;99079.81;4752417;30;20122;-82
2022/03/28 02:38:19;;;;;;;;;;;;;;;-4.76;39.42;99112.28;4766974;30;20093;-82
2022/03/28 02:40:47;;;;;;;3.67;1.50;;;;;;;-5.37;39.50;99033.47;4771004;30;19905;-82
2022/03/28 02:43:14;;;;;;;2.85;1.30;;;;;;;-5.18;39.94;99114.47;4749316;30;20043;-83
2022/03/28 02:45:41;;;;;;;4.38;1.10;;;;;;;-5.34;41.12;99109.44;4749043;30;20054;-83
2022/03/28 02:48:07;;;;;;;3.00;1.50;;;;;;;-5.35;40.27;99072.34;4733974;30;20039;-82
2022/03/28 02:50:36;;;;;;;2.08;1.20;;;;;;;-5.32;40.37;99057.28;4764100;30;20052;-83
2022/03/28 02:53:03;;;;;;;1.80;1.10;;;;;;;-5.49;39.62;99033.75;4749478;30;20047;-83
2022/03/28 02:55:30;;;;;;;1.55;0.98;;;;;;;-5.31;40.28;99079.28;4733576;30;20050;-82
2022/03/28 02:57:56;;;;;;;1.95;1.10;;;;;;;-5.30;41.05;99106.28;4750788;30;20035;-82
2022/03/28 03:00:25;;;;;;;2.80;1.10;;;;;;;-5.84;40.26;99034.53;4766689;30;20057;-82
2022/03/28 03:02:51;;;;;;;2.40;1.20;;;;;;;-5.60;40.54;99079.47;4775648;30;20051;-84
2022/03/28 03:05:18;;;;;;;2.53;1.10;;;;;;;-5.67;41.33;99048.88;4756511;30;20027;-82
2022/03/28 03:07:49;;;;;;;1.85;1.15;;;;;;;-5.67;40.17;99053.91;4782354;30;20046;-83
2022/03/28 03:10:24;;;;;;;2.92;0.95;;;;;;;-5.87;40.47;99019.19;4745746;30;20044;-84
2022/03/28 03:12:52;;;;;;;5.50;1.17;;;;;;;-5.68;42.07;99038.66;4740735;30;20060;-83
2022/03/28 03:15:19;;;;;;;2.75;1.00;;;;;;;-5.37;41.21;99086.53;4742732;30;20059;-83
2022/03/28 03:17:45;;;;;;;2.85;1.15;;;;;;;-5.36;40.95;99080.69;4748802;30;20058;-83
2022/03/28 03:20:13;;;;;;;3.22;0.93;;;;;;;-5.63;41.10;99028.00;4931417;24;20044;-84
2022/03/28 03:22:39;;;;;;;1.35;1.10;;;;;;;-5.73;41.35;99019.88;4801761;24;20046;-82
2022/03/28 03:25:05;;;;;;;2.47;0.95;;;;;;;-5.80;41.20;99006.09;4815341;29;20075;-82
2022/03/28 03:27:30;;;;;;;5.72;0.95;;;;;;;-5.63;40.56;99060.88;4825342;29;20149;-84
2022/03/28 03:29:56;;;;;;;6.60;1.38;;;;;;;-5.49;40.89;99066.59;4830638;29;20046;-83
2022/03/28 03:32:22;;;;;;;1.42;0.80;;;;;;;-5.59;41.37;99051.75;4831151;29;20054;-83
2022/03/28 03:34:52;;;;;;;6.50;1.10;;;;;;;-5.90;40.92;99011.50;4781670;29;20122;-81
2022/03/28 03:37:18;;;;;;;2.40;1.20;;;;;;;-5.94;42.04;99024.78;4808881;29;20104;-82
2022/03/28 03:39:44;;;;;;;6.97;1.20;;;;;;;-5.89;41.54;99046.06;4797855;29;20065;-83
2022/03/28 03:47:45;;;;;;;1.85;1.08;;;;;;;-5.80;42.13;99040.59;5021363;24;20120;-85
2022/03/28 03:50:11;;;;;;;5.03;1.55;;;;;;;-5.84;42.37;99039.56;4950335;24;20049;-83
2022/03/28 03:52:37;;;;;;;4.78;1.13;;;;;;;-5.85;42.33;99016.78;4824792;29;20034;-83
2022/03/28 03:57:47;;;;;;;1.77;1.00;;;;;;;-5.66;41.01;99015.22;4844959;29;20105;-81
2022/03/28 04:00:14;;;;;;;2.67;1.00;;;;;;;-5.35;40.67;99062.22;4797545;29;20076;-80
2022/03/28 04:02:39;;;;;;;;;;;;;;;-5.28;40.94;99081.94;4793386;29;20053;-77
2022/03/28 04:05:06;;;;;;;2.63;1.00;;;;;;;-5.36;41.62;99065.53;4814080;29;19901;-85
2022/03/28 04:07:34;;;;;;;2.63;0.90;;;;;;;-5.45;41.62;99034.75;4801963;29;20053;-84
2022/03/28 04:10:01;;;;;;;7.38;2.83;;;;;;;-5.03;41.54;99065.44;4797866;29;20118;-85
2022/03/28 04:12:37;;;;;;;5.82;1.48;;;;;;;-4.83;40.60;99063.84;4811955;29;20054;-84
2022/03/28 04:15:08;;;;;;;6.03;1.23;;;;;;;-4.83;40.35;99044.47;4799180;29;20047;-84
